Time;durP1;ratioP1;P1;durP2;ratioP2;P2;SDS_P1;SDS_P2;PMS_P1;PMS_P2;Temp;Humidity;BMP_temperature;BMP_pressure;BME280_temperature;BME280_humidity;BME280_pressure;Samples;Min_cycle;Max_cycle;Signal;HPM_P1;HPM_P2
2022/10/02 00:01:46;;;;;;;12.82;1.80;;;12.90;99.90;;;;;;5108007;27;37826;-60
2022/10/02 00:04:19;;;;;;;7.75;1.38;;;12.90;99.90;;;;;;5109465;27;36912;-60
2022/10/02 00:06:48;;;;;;;10.63;1.55;;;12.90;99.90;;;;;;5108644;27;37760;-60
2022/10/02 00:09:23;;;;;;;9.18;2.25;;;12.90;99.90;;;;;;5109870;27;37374;-60
2022/10/02 00:11:55;;;;;;;10.95;2.20;;;12.80;99.90;;;;;;5109021;27;35970;-59
2022/10/02 00:14:25;;;;;;;10.20;1.58;;;12.90;99.90;;;;;;5109308;27;36616;-60
2022/10/02 00:16:56;;;;;;;11.88;1.58;;;12.80;99.90;;;;;;5109100;27;38627;-59
2022/10/02 00:19:24;;;;;;;9.50;1.98;;;12.90;99.90;;;;;;5110389;27;37605;-60
2022/10/02 00:22:11;;;;;;;10.80;1.90;;;12.80;99.90;;;;;;5108127;27;37406;-60
2022/10/02 00:24:43;;;;;;;7.28;1.98;;;12.80;99.90;;;;;;5107609;27;36494;-60
2022/10/02 00:27:33;;;;;;;8.80;2.40;;;12.80;99.90;;;;;;5108859;27;37036;-59
2022/10/02 00:30:03;;;;;;;8.73;1.65;;;12.70;99.90;;;;;;5109135;27;36968;-60
2022/10/02 00:32:38;;;;;;;6.80;1.88;;;12.70;99.90;;;;;;5108736;27;37514;-60
2022/10/02 00:35:41;;;;;;;7.72;1.98;;;12.70;99.90;;;;;;5109280;27;36300;-59
2022/10/02 00:38:19;;;;;;;12.05;3.05;;;12.70;99.90;;;;;;5108923;27;39008;-60
2022/10/02 00:41:11;;;;;;;10.73;2.30;;;12.60;99.90;;;;;;5108738;27;37701;-60
2022/10/02 00:43:47;;;;;;;8.77;2.40;;;12.60;99.90;;;;;;5109077;27;37889;-60
2022/10/02 00:46:29;;;;;;;11.63;2.63;;;12.50;99.90;;;;;;5106253;27;36809;-60
2022/10/02 00:49:11;;;;;;;9.48;2.28;;;12.50;99.90;;;;;;5109066;27;39527;-60
2022/10/02 00:51:52;;;;;;;14.75;2.38;;;12.50;99.90;;;;;;5108605;27;37903;-59
2022/10/02 00:54:43;;;;;;;9.32;2.30;;;12.50;99.90;;;;;;5109130;27;37357;-59
2022/10/02 00:57:18;;;;;;;10.52;2.70;;;12.50;99.90;;;;;;5108862;27;37382;-59
2022/10/02 00:59:59;;;;;;;12.40;2.38;;;12.50;99.90;;;;;;5108719;27;36431;-60
2022/10/02 01:03:11;;;;;;;14.27;3.03;;;12.40;99.90;;;;;;5107736;27;36530;-59
2022/10/02 01:05:40;;;;;;;11.73;2.33;;;12.50;99.90;;;;;;5108417;27;38809;-59
2022/10/02 01:08:08;;;;;;;11.23;2.65;;;12.40;99.90;;;;;;5108697;27;36813;-59
2022/10/02 01:10:37;;;;;;;8.57;2.03;;;12.40;99.90;;;;;;5108655;27;39210;-61
2022/10/02 01:13:06;;;;;;;12.25;2.35;;;12.40;99.90;;;;;;5108503;27;37767;-60
2022/10/02 01:15:38;;;;;;;12.23;3.28;;;12.40;99.90;;;;;;5108583;27;37609;-59
2022/10/02 01:18:06;;;;;;;11.82;3.42;;;12.40;99.90;;;;;;5107926;27;36037;-60
2022/10/02 01:20:37;;;;;;;7.93;3.03;;;12.40;99.90;;;;;;5107952;27;37485;-60
2022/10/02 01:23:15;;;;;;;12.38;2.40;;;12.40;99.90;;;;;;5108082;27;37668;-59
2022/10/02 01:25:44;;;;;;;8.85;2.47;;;12.40;99.90;;;;;;5108336;27;37386;-59
2022/10/02 01:28:11;;;;;;;8.60;2.10;;;12.40;99.90;;;;;;5109308;27;36119;-60
2022/10/02 01:30:41;;;;;;;14.80;2.28;;;12.40;99.90;;;;;;5106186;27;37589;-60
2022/10/02 01:33:10;;;;;;;7.60;1.95;;;12.40;99.90;;;;;;5108582;27;37283;-59
2022/10/02 01:35:39;;;;;;;8.57;1.55;;;12.40;99.90;;;;;;5108543;27;36182;-60
2022/10/02 01:38:09;;;;;;;10.27;2.28;;;12.40;99.90;;;;;;5107659;27;36528;-60
2022/10/02 01:40:38;;;;;;;13.93;2.95;;;12.40;99.90;;;;;;5108683;27;36934;-59
2022/10/02 01:43:10;;;;;;;10.48;2.00;;;12.40;99.90;;;;;;5108033;27;36687;-60
2022/10/02 01:45:57;;;;;;;8.05;1.92;;;12.40;99.90;;;;;;5107333;27;36365;-60
2022/10/02 01:48:42;;;;;;;11.48;2.10;;;12.40;99.90;;;;;;5107342;27;36505;-60
2022/10/02 01:51:29;;;;;;;10.90;2.28;;;12.40;99.90;;;;;;5107754;27;38002;-59
2022/10/02 01:54:09;;;;;;;10.63;3.03;;;12.30;99.90;;;;;;5108551;27;38219;-60
2022/10/02 01:56:42;;;;;;;12.50;2.50;;;12.40;99.90;;;;;;5106423;27;38414;-60
2022/10/02 01:59:19;;;;;;;8.95;1.85;;;12.40;99.90;;;;;;5106289;27;37402;-60
2022/10/02 02:01:55;;;;;;;9.07;1.70;;;12.40;99.90;;;;;;5108031;27;36986;-60
2022/10/02 02:04:26;;;;;;;7.40;2.15;;;12.40;99.90;;;;;;5108659;27;37846;-60
2022/10/02 02:07:02;;;;;;;8.35;2.00;;;12.40;99.90;;;;;;5108004;27;36131;-60
2022/10/02 02:09:37;;;;;;;10.85;2.35;;;12.40;99.90;;;;;;5108066;27;36607;-60
2022/10/02 02:12:12;;;;;;;11.23;2.28;;;12.50;99.90;;;;;;5106889;27;36020;-60
2022/10/02 02:14:47;;;;;;;13.50;2.70;;;12.40;99.90;;;;;;5106036;27;36378;-60
2022/10/02 02:17:20;;;;;;;8.57;1.83;;;12.50;99.90;;;;;;5107264;27;34519;-60
2022/10/02 02:19:52;;;;;;;10.75;2.13;;;12.40;99.90;;;;;;5107254;27;36530;-60
2022/10/02 02:22:24;;;;;;;11.45;2.20;;;12.50;99.90;;;;;;5107703;27;37041;-59
2022/10/02 02:24:56;;;;;;;11.02;2.53;;;12.40;99.90;;;;;;5106530;27;37473;-59
2022/10/02 02:27:27;;;;;;;9.68;1.90;;;12.40;99.90;;;;;;5106076;27;36267;-59
2022/10/02 02:30:02;;;;;;;8.38;2.35;;;12.40;99.90;;;;;;5106759;27;36137;-59
2022/10/02 02:32:34;;;;;;;13.95;2.35;;;12.40;99.90;;;;;;5107959;27;36293;-60
2022/10/02 02:35:07;;;;;;;11.18;1.95;;;12.40;99.90;;;;;;5107909;27;37709;-59
2022/10/02 02:37:39;;;;;;;9.73;3.10;;;12.40;99.90;;;;;;5108086;27;38205;-59
2022/10/02 02:40:09;;;;;;;15.07;2.65;;;12.40;99.90;;;;;;5107555;27;36345;-60
2022/10/02 02:42:41;;;;;;;9.82;1.80;;;12.40;99.90;;;;;;5105910;27;39441;-60
2022/10/02 02:45:15;;;;;;;17.85;3.70;;;12.40;99.90;;;;;;5107033;27;37864;-60
2022/10/02 02:47:48;;;;;;;7.88;1.77;;;12.40;99.90;;;;;;5106745;27;37604;-59
2022/10/02 02:50:19;;;;;;;9.75;1.92;;;12.50;99.90;;;;;;5107996;27;38338;-59
2022/10/02 02:52:52;;;;;;;15.85;1.48;;;12.50;99.90;;;;;;5111680;27;37856;-60
2022/10/02 02:55:25;;;;;;;12.43;2.92;;;12.50;99.90;;;;;;5109970;27;37651;-60
2022/10/02 02:57:56;;;;;;;14.75;1.77;;;12.50;99.90;;;;;;5111199;27;37275;-59
2022/10/02 03:00:25;;;;;;;9.07;1.90;;;12.50;99.90;;;;;;5110820;27;37368;-60
2022/10/02 03:02:53;;;;;;;13.07;1.88;;;12.50;99.90;;;;;;5110448;27;41557;-59
2022/10/02 03:05:23;;;;;;;6.13;1.35;;;12.60;99.90;;;;;;5111209;27;38350;-59
2022/10/02 03:07:54;;;;;;;8.93;2.38;;;12.60;99.90;;;;;;5111146;27;39631;-59
2022/10/02 03:10:32;;;;;;;9.00;1.90;;;12.60;99.90;;;;;;5110477;27;36817;-60
2022/10/02 03:13:15;;;;;;;11.30;1.70;;;12.60;99.90;;;;;;5110785;27;37601;-60
2022/10/02 03:15:55;;;;;;;8.75;1.58;;;12.60;99.90;;;;;;5110816;27;38734;-60
2022/10/02 03:18:40;;;;;;;9.35;1.92;;;12.60;99.90;;;;;;5110779;27;38117;-60
2022/10/02 03:21:11;;;;;;;9.43;1.67;;;12.60;99.90;;;;;;5109589;27;35481;-60
2022/10/02 03:23:53;;;;;;;10.93;1.75;;;12.60;99.90;;;;;;5109706;27;39843;-59
2022/10/02 03:26:26;;;;;;;8.95;1.92;;;12.60;99.90;;;;;;5109375;27;37601;-59
2022/10/02 03:28:57;;;;;;;10.15;1.70;;;12.60;99.90;;;;;;5110823;27;37231;-60
2022/10/02 03:31:30;;;;;;;10.25;1.75;;;12.60;99.90;;;;;;5109298;27;36661;-60
2022/10/02 03:33:58;;;;;;;;;;;12.60;99.90;;;;;;5111890;27;36105;-60
2022/10/02 03:36:26;;;;;;;8.02;1.70;;;12.60;99.90;;;;;;5109912;27;36661;-60
2022/10/02 03:38:57;;;;;;;13.02;2.08;;;12.60;99.90;;;;;;5109443;27;36893;-60
2022/10/02 03:41:24;;;;;;;10.85;1.48;;;12.70;99.90;;;;;;5109289;27;38363;-60
2022/10/02 03:43:51;;;;;;;10.65;1.50;;;12.60;99.90;;;;;;5109502;27;39105;-59
2022/10/02 03:46:18;;;;;;;12.50;2.10;;;12.70;99.90;;;;;;5110091;27;38726;-59
2022/10/02 03:48:47;;;;;;;9.85;1.85;;;12.70;99.90;;;;;;5110084;27;37185;-60
2022/10/02 03:51:14;;;;;;;11.73;1.70;;;12.70;99.90;;;;;;5109156;27;36365;-60
2022/10/02 03:53:42;;;;;;;13.38;2.65;;;12.70;99.90;;;;;;5111058;27;38446;-59
2022/10/02 03:56:18;;;;;;;10.10;1.55;;;12.70;99.90;;;;;;5108593;27;38152;-59
2022/10/02 03:58:49;;;;;;;10.05;2.28;;;12.70;99.90;;;;;;5109634;27;37169;-59
2022/10/02 04:01:20;;;;;;;6.60;1.92;;;12.70;99.90;;;;;;5108773;27;33679;-59
2022/10/02 04:03:54;;;;;;;10.02;1.80;;;12.70;99.90;;;;;;5109922;27;37013;-60
2022/10/02 04:06:26;;;;;;;7.50;1.25;;;12.60;99.90;;;;;;5109767;27;37844;-60
2022/10/02 04:09:01;;;;;;;16.95;2.55;;;12.60;99.90;;;;;;5110011;27;38844;-60
2022/10/02 04:11:33;;;;;;;7.90;1.95;;;12.60;99.90;;;;;;5110131;27;36204;-60
2022/10/02 04:14:09;;;;;;;11.63;1.73;;;12.60;99.90;;;;;;5108872;27;37642;-59
2022/10/02 04:16:42;;;;;;;10.43;2.55;;;12.50;99.90;;;;;;5108913;27;38710;-59
2022/10/02 04:19:17;;;;;;;10.95;2.05;;;12.50;99.90;;;;;;5109188;27;40221;-59
2022/10/02 04:21:51;;;;;;;11.18;2.22;;;12.50;99.90;;;;;;5109926;27;35281;-59
2022/10/02 04:24:26;;;;;;;10.52;1.42;;;12.50;99.90;;;;;;5108712;27;36383;-59
2022/10/02 04:27:02;;;;;;;11.07;1.60;;;12.50;99.90;;;;;;5110551;27;36555;-60
2022/10/02 04:29:35;;;;;;;11.27;1.70;;;12.40;99.90;;;;;;5109433;27;37119;-60
2022/10/02 04:32:12;;;;;;;10.00;2.50;;;12.50;99.90;;;;;;5108895;27;36748;-59
2022/10/02 04:34:41;;;;;;;9.80;1.58;;;12.40;99.90;;;;;;5109513;27;37525;-60
2022/10/02 04:37:30;;;;;;;11.32;1.95;;;12.40;99.90;;;;;;5107982;27;37713;-59
2022/10/02 04:40:13;;;;;;;6.97;1.40;;;12.40;99.90;;;;;;5108556;27;37973;-59
2022/10/02 04:42:53;;;;;;;11.00;1.60;;;12.40;99.90;;;;;;5109945;27;36717;-60
2022/10/02 04:45:36;;;;;;;9.18;1.77;;;12.40;99.90;;;;;;5109197;27;38063;-59
2022/10/02 04:48:35;;;;;;;9.18;2.08;;;12.40;99.90;;;;;;5109185;27;38620;-59
2022/10/02 04:51:15;;;;;;;11.45;1.83;;;12.40;99.90;;;;;;5107963;27;37125;-59
2022/10/02 04:53:59;;;;;;;12.52;2.20;;;12.30;99.90;;;;;;5109490;27;36338;-59
2022/10/02 04:56:38;;;;;;;10.52;2.00;;;12.30;99.90;;;;;;5108897;27;37464;-59
2022/10/02 04:59:22;;;;;;;10.20;1.60;;;12.30;99.90;;;;;;5109736;27;38789;-60
2022/10/02 05:02:06;;;;;;;12.70;2.40;;;12.30;99.90;;;;;;5107454;27;38375;-60
2022/10/02 05:04:57;;;;;;;17.45;2.65;;;12.30;99.90;;;;;;5108373;27;36124;-59
2022/10/02 05:08:03;;;;;;;10.75;1.92;;;12.30;99.90;;;;;;5108121;27;36522;-59
2022/10/02 05:10:44;;;;;;;15.55;1.85;;;12.30;99.90;;;;;;5108013;27;37750;-59
2022/10/02 05:13:24;;;;;;;11.93;1.90;;;12.20;99.90;;;;;;5106804;27;39948;-59
2022/10/02 05:16:08;;;;;;;10.93;2.10;;;12.20;99.90;;;;;;5106426;27;36401;-59
2022/10/02 05:18:52;;;;;;;10.27;1.42;;;12.20;99.90;;;;;;5108430;27;37926;-59
2022/10/02 05:21:37;;;;;;;11.98;1.63;;;12.20;99.90;;;;;;5107547;27;37306;-59
2022/10/02 05:24:26;;;;;;;9.10;1.90;;;12.10;99.90;;;;;;5107510;27;38545;-59
2022/10/02 05:27:21;;;;;;;12.50;2.25;;;12.10;99.90;;;;;;5108624;27;37194;-60
2022/10/02 05:30:04;;;;;;;13.93;1.90;;;12.10;99.90;;;;;;5105337;27;38764;-59
2022/10/02 05:32:46;;;;;;;14.60;1.88;;;12.00;99.90;;;;;;5106731;27;37579;-60
2022/10/02 05:35:30;;;;;;;7.80;1.40;;;12.00;99.90;;;;;;5106291;27;36172;-59
2022/10/02 05:38:10;;;;;;;12.55;2.17;;;12.00;99.90;;;;;;5106010;27;35333;-59
2022/10/02 05:40:46;;;;;;;11.10;1.90;;;12.00;99.90;;;;;;5107838;27;38173;-59
2022/10/02 05:43:23;;;;;;;12.88;1.98;;;12.00;99.90;;;;;;5105069;27;38614;-59
2022/10/02 05:45:54;;;;;;;12.38;2.05;;;12.00;99.90;;;;;;5106284;27;38362;-60
2022/10/02 05:48:26;;;;;;;11.20;2.00;;;12.00;99.90;;;;;;5106514;27;37205;-59
2022/10/02 05:51:03;;;;;;;9.73;1.75;;;11.90;99.90;;;;;;5106508;27;37538;-59
2022/10/02 05:53:36;;;;;;;11.77;1.90;;;12.00;99.90;;;;;;5105632;27;36484;-60
2022/10/02 05:56:12;;;;;;;10.77;2.53;;;12.00;99.90;;;;;;5106875;27;37591;-59
2022/10/02 05:58:49;;;;;;;8.82;1.90;;;11.90;99.90;;;;;;5107159;27;37326;-60
2022/10/02 06:01:20;;;;;;;8.52;1.75;;;11.90;99.90;;;;;;5105970;27;37838;-60
2022/10/02 06:03:54;;;;;;;9.93;1.80;;;11.90;99.90;;;;;;5105703;27;36877;-59
2022/10/02 06:06:26;;;;;;;12.30;1.80;;;11.90;99.90;;;;;;5104657;27;37685;-60
2022/10/02 06:09:00;;;;;;;15.38;2.63;;;11.90;99.90;;;;;;5104321;27;35349;-59
2022/10/02 06:11:35;;;;;;;8.48;1.60;;;11.90;99.90;;;;;;5105973;27;38906;-60
2022/10/02 06:14:10;;;;;;;12.68;2.28;;;11.90;99.90;;;;;;5106044;27;37614;-59
2022/10/02 06:16:44;;;;;;;8.82;2.00;;;11.90;99.90;;;;;;5106743;27;37882;-60
2022/10/02 06:19:17;;;;;;;9.43;1.60;;;11.90;99.90;;;;;;5107017;27;37842;-60
2022/10/02 06:21:51;;;;;;;11.13;2.30;;;11.90;99.90;;;;;;5107301;27;36258;-60
2022/10/02 06:24:25;;;;;;;13.57;2.50;;;12.00;99.90;;;;;;5106325;27;37997;-60
2022/10/02 06:26:59;;;;;;;14.95;2.38;;;12.00;99.90;;;;;;5107376;27;37959;-60
2022/10/02 06:29:33;;;;;;;16.77;2.65;;;12.00;99.90;;;;;;5108012;27;36541;-60
2022/10/02 06:32:05;;;;;;;;;;;12.10;99.90;;;;;;5107151;27;37670;-60
2022/10/02 06:34:32;;;;;;;9.27;1.90;;;12.10;99.90;;;;;;5107157;27;39041;-60
2022/10/02 06:37:18;;;;;;;12.13;2.15;;;12.10;99.90;;;;;;5107595;27;36852;-60
2022/10/02 06:39:57;;;;;;;14.52;1.73;;;12.20;99.90;;;;;;5106770;27;37553;-60
2022/10/02 06:42:39;;;;;;;16.35;2.17;;;12.20;99.90;;;;;;5107196;27;36755;-60
2022/10/02 06:45:20;;;;;;;15.68;2.92;;;12.20;99.90;;;;;;5105560;27;37950;-60
2022/10/02 06:48:00;;;;;;;12.00;1.77;;;12.30;99.90;;;;;;5107107;27;37531;-60
2022/10/02 06:50:39;;;;;;;13.23;1.92;;;12.40;99.90;;;;;;5105838;27;38663;-60
2022/10/02 06:53:19;;;;;;;13.30;1.85;;;12.40;99.90;;;;;;5104977;27;36348;-60
2022/10/02 06:55:58;;;;;;;19.75;3.90;;;12.50;99.90;;;;;;5106377;27;36690;-60
2022/10/02 06:58:48;;;;;;;15.13;2.35;;;12.60;99.90;;;;;;5105334;27;37448;-60
2022/10/02 07:01:27;;;;;;;9.10;2.08;;;12.60;99.90;;;;;;5103971;27;36459;-60
2022/10/02 07:04:21;;;;;;;17.08;2.45;;;12.70;99.90;;;;;;5106322;27;39273;-60
2022/10/02 07:07:05;;;;;;;17.23;2.92;;;12.70;99.90;;;;;;5069159;27;38898;-60
2022/10/02 07:09:55;;;;;;;19.10;3.15;;;12.70;99.90;;;;;;5106688;27;39950;-59
2022/10/02 07:12:46;;;;;;;15.43;2.22;;;12.80;99.90;;;;;;5107242;27;36336;-60
2022/10/02 07:15:54;;;;;;;17.05;2.40;;;12.80;99.90;;;;;;5097546;27;38699;-60
2022/10/02 07:18:41;;;;;;;15.68;2.65;;;12.80;99.90;;;;;;5076963;27;36545;-60
2022/10/02 07:21:16;;;;;;;15.63;2.50;;;12.80;99.90;;;;;;5106458;27;36288;-60
2022/10/02 07:23:53;;;;;;;12.48;2.10;;;12.80;99.90;;;;;;5105902;27;36462;-59
2022/10/02 07:26:38;;;;;;;14.05;1.77;;;12.80;99.90;;;;;;5107079;27;37675;-60
2022/10/02 07:29:18;;;;;;;21.60;3.28;;;12.90;99.90;;;;;;5106449;27;37868;-60
2022/10/02 07:31:56;;;;;;;14.52;2.35;;;13.00;99.90;;;;;;5106337;27;37297;-60
2022/10/02 07:34:34;;;;;;;20.35;3.80;;;13.00;99.90;;;;;;5103806;27;36786;-60
2022/10/02 07:37:14;;;;;;;13.98;2.55;;;13.00;99.90;;;;;;5107892;27;37471;-60
2022/10/02 07:39:53;;;;;;;14.48;3.40;;;13.10;99.90;;;;;;5109194;27;38256;-60
2022/10/02 07:42:43;;;;;;;15.82;3.60;;;13.20;99.90;;;;;;5109022;27;37430;-60
2022/10/02 07:45:40;;;;;;;13.57;3.40;;;13.30;99.90;;;;;;5109244;27;38880;-60
2022/10/02 07:48:48;;;;;;;16.15;5.70;;;13.30;99.90;;;;;;5081538;27;37608;-60
2022/10/02 07:51:46;;;;;;;8.77;2.42;;;13.30;99.90;;;;;;5101890;27;37783;-60
2022/10/02 07:54:39;;;;;;;11.98;4.07;;;13.30;99.90;;;;;;5107373;27;37411;-60
2022/10/02 07:57:22;;;;;;;12.30;3.30;;;13.30;99.90;;;;;;5105451;27;36514;-60
2022/10/02 07:59:54;;;;;;;15.85;5.00;;;13.30;99.90;;;;;;5107657;27;36934;-60
2022/10/02 08:02:28;;;;;;;13.02;2.53;;;13.30;99.90;;;;;;5103153;27;38213;-60
2022/10/02 08:05:00;;;;;;;9.48;2.00;;;13.30;99.90;;;;;;5107574;27;36236;-60
2022/10/02 08:07:30;;;;;;;13.25;2.92;;;13.30;99.90;;;;;;5108147;27;36404;-60
2022/10/02 08:10:03;;;;;;;11.25;2.28;;;13.40;99.90;;;;;;5108621;27;39108;-60
2022/10/02 08:12:36;;;;;;;10.05;3.00;;;13.40;99.90;;;;;;5108380;27;37403;-60
2022/10/02 08:15:05;;;;;;;15.02;2.78;;;13.40;99.90;;;;;;5107120;27;37457;-59
2022/10/02 08:17:39;;;;;;;15.55;4.10;;;13.40;99.90;;;;;;5106303;27;35342;-60
2022/10/02 08:20:17;;;;;;;11.63;3.35;;;13.40;99.90;;;;;;5106783;27;39453;-60
2022/10/02 08:22:51;;;;;;;13.50;4.60;;;13.40;99.90;;;;;;5103584;27;37840;-60
2022/10/02 08:25:24;;;;;;;12.38;3.65;;;13.40;99.90;;;;;;5107081;27;37407;-59
2022/10/02 08:27:58;;;;;;;12.50;2.80;;;13.40;99.90;;;;;;5105706;27;36320;-60
2022/10/02 08:30:25;;;;;;;15.80;2.45;;;13.40;99.90;;;;;;5107199;27;39024;-59
2022/10/02 08:32:54;;;;;;;12.00;2.70;;;13.40;99.90;;;;;;5108215;27;37702;-59
2022/10/02 08:35:24;;;;;;;12.60;3.35;;;13.40;99.90;;;;;;5108990;27;37368;-59
2022/10/02 08:38:12;;;;;;;11.77;3.17;;;13.30;99.90;;;;;;5108834;27;36502;-59
2022/10/02 08:41:14;;;;;;;10.95;2.50;;;13.40;99.90;;;;;;5108783;27;38395;-60
2022/10/02 08:44:21;;;;;;;11.43;2.47;;;13.40;99.90;;;;;;5108376;27;37896;-59
2022/10/02 08:47:52;;;;;;;12.02;2.13;;;13.30;99.90;;;;;;5108610;27;37997;-59
2022/10/02 08:51:08;;;;;;;8.77;1.60;;;13.40;99.90;;;;;;5108135;27;34770;-59
2022/10/02 08:54:09;;;;;;;9.60;2.00;;;13.30;99.90;;;;;;5042960;28;37540;-59
2022/10/02 08:56:51;;;;;;;11.38;1.77;;;13.40;99.90;;;;;;5108795;27;38892;-59
2022/10/02 08:59:47;;;;;;;12.75;2.10;;;13.40;99.90;;;;;;5106445;27;38354;-59
2022/10/02 09:03:02;;;;;;;12.02;1.83;;;13.40;99.90;;;;;;5108201;27;36803;-59
2022/10/02 09:05:57;;;;;;;8.65;2.35;;;13.50;99.90;;;;;;5094044;27;38727;-59
2022/10/02 09:08:56;;;;;;;13.70;3.22;;;13.70;99.90;;;;;;5109292;27;37588;-59
2022/10/02 09:11:59;;;;;;;10.05;1.85;;;13.70;99.90;;;;;;5109381;27;38062;-59
2022/10/02 09:14:43;;;;;;;10.95;2.35;;;13.80;99.90;;;;;;5104809;27;36325;-59
2022/10/02 09:17:34;;;;;;;17.95;3.28;;;13.90;99.90;;;;;;5106436;27;37421;-60
2022/10/02 09:20:26;;;;;;;6.65;1.70;;;14.00;99.90;;;;;;5105244;27;36588;-59
2022/10/02 09:23:48;;;;;;;14.20;2.20;;;14.00;99.90;;;;;;5108931;27;38132;-60
2022/10/02 09:26:26;;;;;;;10.95;2.40;;;14.20;99.90;;;;;;5108156;27;36561;-60
2022/10/02 09:29:22;;;;;;;12.60;2.08;;;14.20;99.90;;;;;;5106146;27;37555;-60
2022/10/02 09:32:33;;;;;;;9.75;2.08;;;14.40;99.90;;;;;;5108264;27;38324;-60
2022/10/02 09:35:30;;;;;;;15.98;3.00;;;14.50;99.90;;;;;;5109132;27;36800;-59
2022/10/02 09:38:40;;;;;;;13.18;2.95;;;14.50;99.90;;;;;;5108531;27;35324;-60
2022/10/02 09:41:46;;;;;;;15.85;3.45;;;14.50;99.90;;;;;;5108142;27;37025;-60
2022/10/02 09:44:43;;;;;;;12.82;2.40;;;14.50;99.90;;;;;;5103120;27;37652;-60
2022/10/02 09:48:00;;;;;;;12.25;2.45;;;14.60;99.90;;;;;;5107177;27;37297;-60
2022/10/02 09:51:03;;;;;;;12.85;2.25;;;14.70;99.90;;;;;;5037235;28;36673;-59
2022/10/02 09:53:57;;;;;;;11.65;2.30;;;14.90;99.90;;;;;;5107102;27;40724;-60
2022/10/02 09:57:05;;;;;;;13.77;2.70;;;15.00;99.90;;;;;;5109190;27;37445;-60
2022/10/02 10:00:26;;;;;;;13.82;3.38;;;15.10;99.90;;;;;;5106603;27;38756;-60
2022/10/02 10:03:30;;;;;;;10.95;2.28;;;15.30;99.90;;;;;;5051363;27;36718;-60
2022/10/02 10:06:16;;;;;;;14.75;3.15;;;15.40;99.90;;;;;;5108494;27;38485;-60
2022/10/02 10:09:18;;;;;;;17.35;3.20;;;15.50;99.90;;;;;;5107132;27;38538;-60
2022/10/02 10:12:05;;;;;;;17.55;3.20;;;15.70;99.90;;;;;;5107172;27;36195;-60
2022/10/02 10:15:18;;;;;;;15.80;3.15;;;15.80;99.90;;;;;;5106750;27;35205;-59
2022/10/02 10:18:16;;;;;;;14.02;3.42;;;15.90;99.90;;;;;;5107772;27;37830;-60
2022/10/02 10:21:07;;;;;;;16.13;3.88;;;16.10;99.90;;;;;;5109945;27;37973;-60
2022/10/02 10:23:56;;;;;;;21.48;3.15;;;16.20;99.90;;;;;;5112814;27;36424;-60
2022/10/02 10:26:47;;;;;;;16.63;3.08;;;16.10;99.90;;;;;;5111620;27;36182;-60
2022/10/02 10:29:42;;;;;;;11.18;2.20;;;16.00;99.90;;;;;;5110561;27;37409;-60
2022/10/02 10:32:33;;;;;;;15.63;3.17;;;16.00;99.90;;;;;;5111759;27;39912;-60
2022/10/02 10:35:23;;;;;;;18.33;3.65;;;16.00;99.90;;;;;;5112385;27;37663;-60
2022/10/02 10:41:21;;;;;;;14.63;2.30;;;16.10;99.90;;;;;;5110231;27;38975;-59
2022/10/02 10:44:18;;;;;;;13.10;2.58;;;16.30;99.90;;;;;;5086604;27;38054;-60
2022/10/02 10:47:09;;;;;;;16.00;2.85;;;16.30;99.90;;;;;;5110013;27;37612;-60
2022/10/02 10:50:01;;;;;;;13.38;3.10;;;16.40;99.90;;;;;;5111666;27;36947;-59
2022/10/02 10:52:57;;;;;;;14.02;2.95;;;16.50;99.90;;;;;;5110758;27;37480;-60
2022/10/02 10:55:48;;;;;;;12.32;2.55;;;16.60;99.90;;;;;;5111323;27;37591;-61
2022/10/02 10:58:23;;;;;;;14.80;3.78;;;16.70;99.90;;;;;;5111973;27;36642;-59
2022/10/02 11:01:05;;;;;;;11.63;2.35;;;16.70;99.90;;;;;;5111664;27;36644;-60
2022/10/02 11:04:07;;;;;;;12.63;2.58;;;16.80;99.90;;;;;;5111401;27;37504;-60
2022/10/02 11:07:00;;;;;;;17.50;2.80;;;16.70;99.90;;;;;;5104521;27;38429;-60
2022/10/02 11:10:15;;;;;;;11.40;2.95;;;16.80;99.90;;;;;;5098681;27;37498;-60
2022/10/02 11:13:18;;;;;;;11.27;2.92;;;16.90;99.90;;;;;;5096784;27;36619;-60
2022/10/02 11:16:15;;;;;;;15.20;2.60;;;16.90;99.90;;;;;;5114282;27;37578;-60
2022/10/02 11:19:07;;;;;;;21.40;3.33;;;16.90;99.90;;;;;;5115352;27;37624;-60
2022/10/02 11:21:57;;;;;;;11.35;2.25;;;17.00;99.90;;;;;;5115401;27;37563;-60
2022/10/02 11:24:43;;;;;;;18.58;2.60;;;17.10;99.90;;;;;;5115730;27;36987;-60
2022/10/02 11:27:25;;;;;;;16.48;2.60;;;17.10;99.90;;;;;;5115648;27;39487;-60
2022/10/02 11:30:22;;;;;;;13.43;2.38;;;16.80;99.90;;;;;;5115951;27;37249;-59
2022/10/02 11:33:14;;;;;;;11.05;2.35;;;16.60;99.90;;;;;;5115357;27;38528;-60
2022/10/02 11:35:52;;;;;;;12.15;2.10;;;16.40;99.90;;;;;;5115038;27;35435;-59
2022/10/02 11:38:53;;;;;;;12.45;2.72;;;16.20;99.90;;;;;;5114640;27;37413;-60
2022/10/02 11:41:42;;;;;;;15.82;3.13;;;16.00;99.90;;;;;;5113810;27;39082;-60
2022/10/02 11:44:34;;;;;;;13.23;2.65;;;16.00;99.90;;;;;;5114988;27;37544;-60
2022/10/02 11:47:34;;;;;;;12.98;3.03;;;15.90;99.90;;;;;;5112645;27;38107;-59
2022/10/02 11:50:42;;;;;;;13.48;2.20;;;16.00;99.90;;;;;;5114012;27;37160;-59
2022/10/02 11:53:33;;;;;;;11.70;2.50;;;16.00;99.90;;;;;;5115222;27;37856;-60
2022/10/02 11:56:28;;;;;;;11.20;2.50;;;16.00;99.90;;;;;;5115308;27;37239;-60
2022/10/02 11:59:08;;;;;;;14.30;2.53;;;15.90;99.90;;;;;;5114579;27;37222;-60
2022/10/02 12:01:44;;;;;;;10.07;1.98;;;15.90;99.90;;;;;;5114737;27;36187;-60
2022/10/02 12:04:33;;;;;;;10.73;2.83;;;16.00;99.90;;;;;;5114382;27;37630;-60
2022/10/02 12:07:18;;;;;;;14.55;2.58;;;16.10;99.90;;;;;;5115449;27;36335;-60
2022/10/02 12:09:56;;;;;;;15.73;3.00;;;16.20;99.90;;;;;;5114558;27;38019;-59
2022/10/02 12:12:36;;;;;;;14.23;2.47;;;16.20;99.90;;;;;;5114988;27;38502;-59
2022/10/02 12:15:12;;;;;;;14.38;2.10;;;16.20;99.90;;;;;;5114968;27;37798;-59
2022/10/02 12:18:09;;;;;;;13.60;2.60;;;16.30;99.90;;;;;;5115284;27;37654;-59
2022/10/02 12:27:01;;;;;;;9.88;1.80;;;16.50;99.90;;;;;;5114178;27;39795;-59
2022/10/02 12:29:43;;;;;;;15.00;2.30;;;16.50;99.90;;;;;;5115227;27;36331;-60
2022/10/02 12:32:23;;;;;;;12.05;1.95;;;16.50;99.90;;;;;;5113429;27;36673;-59
2022/10/02 12:35:01;;;;;;;9.57;1.92;;;16.60;99.90;;;;;;5113957;27;36298;-60
2022/10/02 12:37:38;;;;;;;14.45;2.58;;;16.60;99.90;;;;;;5114720;27;38775;-59
2022/10/02 12:40:15;;;;;;;12.45;2.90;;;16.70;99.90;;;;;;5113988;27;36356;-60
2022/10/02 12:43:09;;;;;;;12.48;2.33;;;16.70;99.90;;;;;;5115187;27;36429;-60
2022/10/02 12:46:01;;;;;;;10.65;1.90;;;16.80;99.90;;;;;;5113683;27;39367;-59
2022/10/02 12:48:46;;;;;;;13.35;2.35;;;16.80;99.90;;;;;;5114684;27;38422;-60
2022/10/02 12:51:35;;;;;;;11.15;2.33;;;16.60;99.90;;;;;;5113962;27;37626;-60
2022/10/02 12:54:36;;;;;;;14.73;2.65;;;16.60;99.90;;;;;;5114478;27;36311;-59
2022/10/02 13:00:15;;;;;;;13.15;2.33;;;16.60;99.90;;;;;;5114698;27;39166;-59
2022/10/02 13:03:29;;;;;;;15.18;3.03;;;16.60;99.90;;;;;;5114076;27;37244;-59
2022/10/02 13:06:23;;;;;;;12.27;2.33;;;16.60;99.90;;;;;;5114019;27;35467;-59
2022/10/02 13:09:24;;;;;;;12.65;2.90;;;16.70;99.90;;;;;;5114084;27;38782;-59
2022/10/02 13:12:07;;;;;;;11.68;2.38;;;16.60;99.90;;;;;;5114847;27;36647;-60
2022/10/02 13:15:16;;;;;;;13.65;3.47;;;16.60;99.90;;;;;;5114204;27;36116;-59
2022/10/02 13:17:49;;;;;;;13.73;2.35;;;16.50;99.90;;;;;;5072759;27;36495;-59
2022/10/02 13:20:28;;;;;;;13.00;2.30;;;16.40;99.90;;;;;;5112452;27;37151;-59
2022/10/02 13:23:04;;;;;;;13.48;2.45;;;16.30;99.90;;;;;;5114170;27;37690;-59
2022/10/02 13:25:43;;;;;;;18.42;3.03;;;16.20;99.90;;;;;;5112903;27;37184;-60
2022/10/02 13:28:28;;;;;;;12.65;2.25;;;16.10;99.90;;;;;;5113517;27;35434;-59
2022/10/02 13:31:04;;;;;;;14.93;2.67;;;16.00;99.90;;;;;;5112143;27;37004;-59
2022/10/02 13:33:53;;;;;;;15.52;2.67;;;15.90;99.90;;;;;;5113660;27;37672;-59
2022/10/02 13:36:29;;;;;;;14.43;2.30;;;15.80;99.90;;;;;;5113688;27;37419;-60
2022/10/02 13:39:22;;;;;;;11.93;2.42;;;15.80;99.90;;;;;;5113858;27;37070;-59
2022/10/02 13:42:06;;;;;;;15.18;2.85;;;15.80;99.90;;;;;;5113647;27;38702;-59
2022/10/02 13:44:48;;;;;;;16.73;2.53;;;15.70;99.90;;;;;;5112003;27;39450;-59
2022/10/02 13:47:47;;;;;;;15.75;3.17;;;15.60;99.90;;;;;;5113294;27;36365;-59
2022/10/02 13:50:25;;;;;;;17.27;3.95;;;15.50;99.90;;;;;;5109011;27;36130;-59
2022/10/02 13:53:08;;;;;;;12.07;2.58;;;15.40;99.90;;;;;;5113311;27;36440;-59
2022/10/02 13:55:43;;;;;;;10.35;2.40;;;15.50;99.90;;;;;;5113529;27;37668;-59
2022/10/02 13:58:28;;;;;;;15.65;2.97;;;15.50;99.90;;;;;;5114075;27;35645;-60
2022/10/02 14:01:25;;;;;;;20.80;3.47;;;15.50;99.90;;;;;;5112094;27;37188;-59
2022/10/02 14:04:09;;;;;;;13.82;3.20;;;15.60;99.90;;;;;;5112303;27;36306;-59
2022/10/02 14:06:42;;;;;;;12.95;3.10;;;15.60;99.90;;;;;;5113312;27;36558;-59
2022/10/02 14:09:22;;;;;;;12.15;3.03;;;15.60;99.90;;;;;;5113415;27;37808;-59
2022/10/02 14:12:05;;;;;;;12.63;2.65;;;15.60;99.90;;;;;;5113223;27;37653;-60